Time;durP1;ratioP1;P1;durP2;ratioP2;P2;SDS_P1;SDS_P2;PMS_P1;PMS_P2;Temp;Humidity;BMP_temperature;BMP_pressure;BME280_temperature;BME280_humidity;BME280_pressure;Samples;Min_cycle;Max_cycle;Signal;HPM_P1;HPM_P2
2021/03/03 00:02:23;;;;;;;131.25;45.70;;;;;;;-0.17;74.94;102189.61;1720923;83;21171;-72
2021/03/03 00:04:49;;;;;;;84.28;35.52;;;;;;;-0.18;74.97;102190.55;1721051;82;21573;-72
2021/03/03 00:07:16;;;;;;;84.37;32.83;;;;;;;-0.22;75.02;102192.88;1721008;83;21219;-72
2021/03/03 00:09:42;;;;;;;125.55;45.63;;;;;;;-0.26;75.05;102197.84;1721082;83;21517;-72
2021/03/03 00:12:09;;;;;;;100.70;38.78;;;;;;;-0.27;75.11;102188.70;1720969;83;21140;-72
2021/03/03 00:14:36;;;;;;;105.92;39.80;;;;;;;-0.32;75.15;102194.59;1721068;83;21192;-72
2021/03/03 00:17:02;;;;;;;94.77;37.25;;;;;;;-0.32;75.19;102184.97;1720925;83;21112;-72
2021/03/03 00:19:28;;;;;;;74.25;34.10;;;;;;;-0.27;75.24;102192.64;1721156;82;21193;-72
2021/03/03 00:21:55;;;;;;;76.57;32.63;;;;;;;-0.26;75.28;102178.63;1720939;83;21219;-72
2021/03/03 00:24:21;;;;;;;81.65;34.48;;;;;;;-0.36;75.29;102174.64;1721201;83;21629;-72
2021/03/03 00:26:47;;;;;;;74.55;33.05;;;;;;;-0.43;75.31;102181.02;1721041;83;21624;-72
2021/03/03 00:29:14;;;;;;;71.67;32.45;;;;;;;-0.51;75.35;102179.53;1720972;82;21128;-72
2021/03/03 00:31:40;;;;;;;96.28;39.65;;;;;;;-0.52;75.39;102177.81;1721134;83;21214;-72
2021/03/03 00:34:07;;;;;;;221.50;87.97;;;;;;;-0.52;75.42;102173.89;1720839;83;21170;-72
2021/03/03 00:36:33;;;;;;;258.38;103.85;;;;;;;-0.56;75.47;102177.52;1720984;83;21196;-72
2021/03/03 00:38:59;;;;;;;200.82;80.22;;;;;;;-0.59;75.49;102169.78;1720955;83;21176;-72
2021/03/03 00:41:25;;;;;;;199.68;82.05;;;;;;;-0.60;75.50;102168.55;1720906;83;21606;-72
2021/03/03 00:43:52;;;;;;;185.03;75.80;;;;;;;-0.62;75.54;102169.89;1721110;82;21210;-72
2021/03/03 00:46:18;;;;;;;156.07;65.80;;;;;;;-0.61;75.59;102167.69;1720898;83;21144;-72
2021/03/03 00:48:44;;;;;;;153.85;62.67;;;;;;;-0.54;75.63;102166.55;1721049;83;21129;-72
2021/03/03 00:51:11;;;;;;;141.70;61.83;;;;;;;-0.51;75.68;102155.95;1720978;83;21148;-72
2021/03/03 00:53:37;;;;;;;107.80;48.75;;;;;;;-0.46;75.72;102161.03;1721086;83;21149;-73
2021/03/03 00:56:04;;;;;;;120.33;50.92;;;;;;;-0.47;75.74;102161.08;1715483;83;22079;-73
2021/03/03 00:58:30;;;;;;;127.42;52.50;;;;;;;-0.47;75.79;102166.31;1702419;84;21167;-73
2021/03/03 01:00:58;;;;;;;110.97;47.60;;;;;;;-0.48;75.83;102155.42;1702378;84;21200;-73
2021/03/03 01:03:25;;;;;;;114.28;48.70;;;;;;;-0.55;75.85;102155.66;1702178;84;21112;-73
2021/03/03 01:05:51;;;;;;;93.75;39.67;;;;;;;-0.59;75.87;102158.44;1702558;84;21188;-73
2021/03/03 01:08:17;;;;;;;88.65;39.35;;;;;;;-0.63;75.90;102157.70;1702226;84;21585;-73
2021/03/03 01:10:44;;;;;;;83.70;36.28;;;;;;;-0.62;75.95;102159.41;1702255;84;21156;-73
2021/03/03 01:13:11;;;;;;;81.70;33.78;;;;;;;-0.59;75.95;102154.52;1702360;84;21521;-73
2021/03/03 01:15:37;;;;;;;84.60;39.18;;;;;;;-0.64;75.97;102156.46;1702445;84;21608;-73
2021/03/03 01:18:04;;;;;;;89.22;37.35;;;;;;;-0.64;76.00;102153.39;1702303;84;21593;-73
2021/03/03 01:20:30;;;;;;;84.42;37.40;;;;;;;-0.66;76.05;102151.27;1702322;84;22501;-73
2021/03/03 01:22:58;;;;;;;89.83;38.85;;;;;;;-0.66;76.08;102150.41;1702408;84;21196;-73
2021/03/03 01:25:25;;;;;;;90.70;39.53;;;;;;;-0.69;76.10;102146.14;1702238;84;21183;-73
2021/03/03 01:27:51;;;;;;;95.77;39.83;;;;;;;-0.71;76.14;102142.73;1702456;84;21152;-73
2021/03/03 01:30:18;;;;;;;87.70;37.38;;;;;;;-0.69;76.19;102139.59;1702388;84;21135;-73
2021/03/03 01:32:44;;;;;;;84.22;37.30;;;;;;;-0.70;76.24;102141.80;1702474;84;21210;-72
2021/03/03 01:35:12;;;;;;;91.42;39.05;;;;;;;-0.71;76.25;102134.02;1702203;84;21871;-73
2021/03/03 01:37:39;;;;;;;99.20;40.15;;;;;;;-0.70;76.29;102141.80;1702431;82;21597;-73
2021/03/03 01:40:07;;;;;;;86.67;36.33;;;;;;;-0.72;76.31;102130.98;1702502;84;21187;-73
2021/03/03 01:42:33;;;;;;;72.42;31.82;;;;;;;-0.76;76.32;102127.63;1702167;84;21160;-73
2021/03/03 01:45:00;;;;;;;69.25;29.32;;;;;;;-0.74;76.33;102123.66;1702438;84;21224;-73
2021/03/03 01:47:26;;;;;;;69.10;30.62;;;;;;;-0.74;76.36;102123.66;1702167;84;21747;-73
2021/03/03 01:49:52;;;;;;;77.10;33.78;;;;;;;-0.74;76.39;102116.62;1702246;84;21248;-73
2021/03/03 01:52:19;;;;;;;76.92;34.75;;;;;;;-0.69;76.41;102114.70;1702381;84;21128;-73
2021/03/03 01:54:45;;;;;;;120.85;46.42;;;;;;;-0.67;76.43;102117.28;1702420;84;21582;-73
2021/03/03 01:57:12;;;;;;;94.65;38.98;;;;;;;-0.67;76.47;102113.36;1682081;84;21216;-73
2021/03/03 01:59:39;;;;;;;80.60;34.13;;;;;;;-0.66;76.52;102115.90;1702279;84;21594;-73
2021/03/03 02:02:05;;;;;;;81.37;35.20;;;;;;;-0.71;76.55;102106.06;1702420;82;21204;-73
2021/03/03 02:04:33;;;;;;;80.60;33.40;;;;;;;-0.80;76.59;102105.08;1702241;84;21132;-73
2021/03/03 02:07:43;;;;;;;82.55;33.35;;;;;;;-0.87;76.62;102106.20;1702521;84;21147;-73
2021/03/03 02:10:24;;;;;;;73.05;32.75;;;;;;;-0.92;76.66;102112.08;1702350;83;22241;-73
2021/03/03 02:13:31;;;;;;;78.92;32.42;;;;;;;-0.99;76.68;102097.50;1701835;84;21228;-73
2021/03/03 02:15:58;;;;;;;73.33;33.10;;;;;;;-1.02;76.70;102097.58;1702319;83;21565;-73
2021/03/03 02:18:25;;;;;;;93.42;39.63;;;;;;;-1.12;76.73;102092.27;1702397;84;21216;-73
2021/03/03 02:21:11;;;;;;;95.28;42.17;;;;;;;-1.13;76.77;102091.90;1702395;84;21133;-73
2021/03/03 02:23:55;;;;;;;85.00;36.63;;;;;;;-1.07;76.78;102087.75;1682232;84;21271;-73
2021/03/03 02:26:23;;;;;;;94.72;40.35;;;;;;;-1.01;76.83;102085.76;1702188;84;21582;-73
2021/03/03 02:28:49;;;;;;;96.00;38.83;;;;;;;-0.98;76.83;102086.09;1702307;84;21156;-73
2021/03/03 02:31:17;;;;;;;95.35;39.48;;;;;;;-1.03;76.87;102077.57;1702379;84;21160;-73
2021/03/03 02:33:43;;;;;;;84.42;38.48;;;;;;;-1.06;76.90;102082.47;1702456;84;21159;-73
2021/03/03 02:36:14;;;;;;;86.55;35.73;;;;;;;-1.08;76.93;102084.27;1702520;84;21265;-73
2021/03/03 02:38:41;;;;;;;82.72;35.38;;;;;;;-1.07;76.96;102086.44;1702357;84;21172;-73
2021/03/03 02:41:09;;;;;;;77.40;35.28;;;;;;;-1.10;77.00;102078.70;1702503;84;21208;-73
2021/03/03 02:43:37;;;;;;;82.10;33.93;;;;;;;-1.09;77.01;102077.80;1702592;84;21164;-74
2021/03/03 02:46:05;;;;;;;74.92;35.43;;;;;;;-1.07;77.05;102072.04;1702395;84;21244;-72
2021/03/03 02:48:32;;;;;;;84.67;36.00;;;;;;;-1.06;77.05;102076.38;1702473;84;21253;-72
2021/03/03 02:50:58;;;;;;;81.30;35.20;;;;;;;-1.07;77.08;102074.66;1702447;84;21605;-73
2021/03/03 02:53:24;;;;;;;75.45;33.73;;;;;;;-1.03;77.11;102073.64;1702612;84;21141;-73
2021/03/03 02:55:51;;;;;;;75.37;31.55;;;;;;;-1.03;77.14;102067.09;1702267;83;21143;-73
2021/03/03 02:58:17;;;;;;;69.30;32.10;;;;;;;-1.06;77.16;102062.84;1720024;83;21586;-72
2021/03/03 03:00:44;;;;;;;71.62;31.60;;;;;;;-1.12;77.16;102070.88;1673125;83;21236;-72
2021/03/03 03:03:22;;;;;;;68.30;31.60;;;;;;;-1.12;77.19;102067.41;1721079;83;21168;-72
2021/03/03 03:05:55;;;;;;;72.03;32.10;;;;;;;-1.09;77.24;102068.64;1720887;83;21199;-72
2021/03/03 03:08:21;;;;;;;67.65;30.75;;;;;;;-1.12;77.25;102063.03;1710142;83;21131;-72
2021/03/03 03:10:48;;;;;;;80.28;36.50;;;;;;;-1.18;77.29;102061.09;1721043;83;21596;-72
2021/03/03 03:13:16;;;;;;;72.80;32.93;;;;;;;-1.22;77.28;102064.72;1720978;83;21212;-72
2021/03/03 03:15:43;;;;;;;78.85;32.50;;;;;;;-1.22;77.32;102060.80;1673327;83;21194;-72
2021/03/03 03:18:17;;;;;;;68.75;29.63;;;;;;;-1.26;77.35;102058.73;1721036;83;21140;-72
2021/03/03 03:20:44;;;;;;;76.47;31.85;;;;;;;-1.26;77.35;102059.19;1696375;83;21574;-72
2021/03/03 03:23:11;;;;;;;87.25;37.35;;;;;;;-1.24;77.40;102061.32;1673324;83;21141;-72
2021/03/03 03:25:39;;;;;;;82.82;35.85;;;;;;;-1.17;77.41;102056.27;1721045;83;21205;-73
2021/03/03 03:28:05;;;;;;;77.92;34.60;;;;;;;-1.15;77.43;102058.36;1721060;83;21176;-73
2021/03/03 03:30:32;;;;;;;83.72;37.70;;;;;;;-1.15;77.47;102060.53;1720751;83;21109;-73
2021/03/03 03:32:59;;;;;;;88.12;35.45;;;;;;;-1.17;77.49;102057.58;1721116;83;21163;-73
2021/03/03 03:35:27;;;;;;;80.42;35.73;;;;;;;-1.17;77.50;102053.65;1721018;82;21136;-72
2021/03/03 03:37:54;;;;;;;77.00;33.42;;;;;;;-1.13;77.52;102055.25;1720504;83;21230;-73
2021/03/03 03:40:20;;;;;;;76.17;31.73;;;;;;;-1.16;77.53;102054.06;1720805;83;21618;-72
2021/03/03 03:42:47;;;;;;;66.95;29.80;;;;;;;-1.21;77.54;102046.81;1720865;83;21196;-72
2021/03/03 03:45:14;;;;;;;73.25;32.42;;;;;;;-1.28;77.55;102043.56;1721184;82;21165;-73
2021/03/03 03:47:41;;;;;;;64.50;29.70;;;;;;;-1.35;77.56;102042.52;1672869;83;21566;-72
2021/03/03 03:50:08;;;;;;;69.25;29.75;;;;;;;-1.39;77.57;102040.91;1721137;83;21210;-73
2021/03/03 03:52:35;;;;;;;72.85;30.30;;;;;;;-1.39;77.63;102040.47;1696318;83;21160;-72
2021/03/03 03:55:01;;;;;;;90.80;39.53;;;;;;;-1.35;77.66;102047.75;1696290;83;21531;-72
2021/03/03 03:57:27;;;;;;;92.90;43.17;;;;;;;-1.36;77.69;102044.73;1712162;83;21140;-72
2021/03/03 03:59:54;;;;;;;96.45;45.43;;;;;;;-1.39;77.71;102047.45;1702442;84;21185;-73
2021/03/03 04:02:20;;;;;;;94.65;41.63;;;;;;;-1.41;77.72;102047.98;1702451;84;21168;-73
2021/03/03 04:04:46;;;;;;;87.90;40.40;;;;;;;-1.43;77.76;102044.09;1702352;84;21601;-72
2021/03/03 04:07:12;;;;;;;100.82;44.42;;;;;;;-1.41;77.79;102049.28;1702533;84;21208;-73
2021/03/03 04:09:39;;;;;;;97.82;40.00;;;;;;;-1.42;77.82;102044.95;1702339;84;21132;-72
2021/03/03 04:12:06;;;;;;;111.92;45.78;;;;;;;-1.48;77.85;102045.17;1702415;84;22029;-72
2021/03/03 04:14:32;;;;;;;88.65;38.08;;;;;;;-1.54;77.87;102040.98;1702409;84;21261;-72
2021/03/03 04:16:59;;;;;;;83.67;33.38;;;;;;;-1.59;77.90;102036.38;1702433;83;21569;-72
2021/03/03 04:19:25;;;;;;;76.57;33.45;;;;;;;-1.64;77.92;102032.61;1702488;84;21155;-72
2021/03/03 04:21:51;;;;;;;78.80;33.00;;;;;;;-1.65;77.94;102033.51;1702545;84;21157;-73
2021/03/03 04:24:17;;;;;;;80.77;33.98;;;;;;;-1.62;77.96;102032.57;1702481;84;21112;-72
2021/03/03 04:26:44;;;;;;;70.85;33.58;;;;;;;-1.63;78.01;102029.09;1702211;84;21207;-72
2021/03/03 04:29:10;;;;;;;74.55;32.65;;;;;;;-1.66;78.05;102025.28;1702386;84;21632;-72
2021/03/03 04:31:36;;;;;;;78.40;34.48;;;;;;;-1.68;78.08;102015.76;1702434;84;21187;-72
2021/03/03 04:34:03;;;;;;;90.75;38.70;;;;;;;-1.67;78.14;102022.26;1702287;83;21226;-72
2021/03/03 04:36:29;;;;;;;104.65;43.20;;;;;;;-1.65;78.17;102020.44;1702396;84;21137;-73
2021/03/03 04:38:55;;;;;;;76.67;34.45;;;;;;;-1.60;78.21;102011.12;1702347;84;22137;-73
2021/03/03 04:41:21;;;;;;;92.53;36.90;;;;;;;-1.59;78.22;102011.09;1702306;84;21172;-72
2021/03/03 04:43:48;;;;;;;78.67;34.58;;;;;;;-1.63;78.22;102009.48;1702377;84;21165;-72
2021/03/03 04:46:14;;;;;;;86.20;36.08;;;;;;;-1.64;78.29;102009.07;1702482;84;21120;-73
2021/03/03 04:48:40;;;;;;;88.10;37.70;;;;;;;-1.62;78.32;102006.42;1702354;84;21140;-73
2021/03/03 04:51:07;;;;;;;91.25;38.00;;;;;;;-1.57;78.36;102000.55;1702504;84;21920;-72
2021/03/03 04:53:33;;;;;;;84.45;39.13;;;;;;;-1.55;78.41;102000.06;1702190;84;21143;-72
2021/03/03 04:55:59;;;;;;;89.60;40.58;;;;;;;-1.50;78.47;101994.20;1702375;82;21148;-72
2021/03/03 04:58:25;;;;;;;96.85;40.23;;;;;;;-1.44;78.50;101989.22;1716308;83;21549;-72
2021/03/03 05:00:52;;;;;;;90.07;38.92;;;;;;;-1.44;78.53;101981.38;1721047;83;21141;-72
2021/03/03 05:03:18;;;;;;;80.55;35.20;;;;;;;-1.37;78.54;101978.94;1721173;83;21207;-72
2021/03/03 05:05:45;;;;;;;79.53;37.28;;;;;;;-1.38;78.56;101977.22;1720726;83;21223;-72
2021/03/03 05:08:11;;;;;;;85.62;37.78;;;;;;;-1.41;78.55;101973.41;1720909;82;21528;-71
2021/03/03 05:10:37;;;;;;;88.12;37.50;;;;;;;-1.41;78.59;101974.27;1720934;83;21188;-72
2021/03/03 05:13:04;;;;;;;88.27;38.67;;;;;;;-1.38;78.59;101971.98;1720869;83;21168;-72
2021/03/03 05:15:30;;;;;;;93.97;40.75;;;;;;;-1.42;78.62;101971.25;1721032;83;21194;-72
2021/03/03 05:17:56;;;;;;;88.72;41.15;;;;;;;-1.45;78.63;101972.67;1720952;83;21600;-72
2021/03/03 05:20:22;;;;;;;93.58;41.23;;;;;;;-1.48;78.64;101966.70;1721120;83;21212;-72
2021/03/03 05:22:49;;;;;;;103.47;43.90;;;;;;;-1.53;78.65;101967.70;1720831;82;21852;-73
2021/03/03 05:25:15;;;;;;;127.20;55.60;;;;;;;-1.56;78.66;101960.42;1721042;83;21196;-73
2021/03/03 05:27:41;;;;;;;121.65;51.45;;;;;;;-1.59;78.67;101957.92;1720964;83;21628;-73
2021/03/03 05:30:09;;;;;;;137.45;56.65;;;;;;;-1.55;78.72;101964.27;1720968;83;21648;-74
2021/03/03 05:32:36;;;;;;;136.65;65.50;;;;;;;-1.53;78.74;101962.48;1720935;83;21151;-74
2021/03/03 05:35:02;;;;;;;142.47;68.10;;;;;;;-1.49;78.77;101957.98;1720837;83;21585;-74
2021/03/03 05:37:29;;;;;;;159.00;68.90;;;;;;;-1.44;78.79;101956.52;1721197;82;21138;-74
2021/03/03 05:39:55;;;;;;;165.75;71.95;;;;;;;-1.41;78.79;101960.34;1720610;83;21172;-74
2021/03/03 05:42:22;;;;;;;144.55;65.12;;;;;;;-1.38;78.83;101957.60;1721014;82;21545;-74
2021/03/03 05:44:48;;;;;;;146.55;65.87;;;;;;;-1.36;78.83;101947.92;1720436;82;21140;-74
2021/03/03 05:47:15;;;;;;;161.43;67.85;;;;;;;-1.31;78.83;101953.85;1720938;83;21171;-74
2021/03/03 05:49:43;;;;;;;156.65;63.95;;;;;;;-1.31;78.86;101946.86;1720886;83;21136;-74
2021/03/03 05:52:12;;;;;;;164.40;67.03;;;;;;;-1.33;78.85;101945.19;1721147;83;21275;-72
2021/03/03 05:54:38;;;;;;;123.70;53.93;;;;;;;-1.31;78.86;101944.24;1721182;83;21148;-71
2021/03/03 05:57:05;;;;;;;147.65;64.20;;;;;;;-1.25;78.89;101939.22;1720868;82;21171;-72
2021/03/03 05:59:32;;;;;;;144.00;64.17;;;;;;;-1.23;78.89;101938.25;1721090;83;21219;-72
2021/03/03 06:01:58;;;;;;;151.97;63.28;;;;;;;-1.18;78.90;101940.70;1720891;83;21141;-72
2021/03/03 06:04:24;;;;;;;146.72;65.15;;;;;;;-1.15;78.94;101940.58;1720911;83;21209;-72
2021/03/03 06:06:51;;;;;;;132.85;60.28;;;;;;;-1.09;78.96;101939.06;1720871;83;21157;-72
2021/03/03 06:09:19;;;;;;;133.00;57.58;;;;;;;-1.05;79.01;101940.62;1721004;83;21157;-72
2021/03/03 06:11:45;;;;;;;132.07;58.60;;;;;;;-0.95;79.03;101934.13;1721064;83;21105;-72
2021/03/03 06:14:12;;;;;;;128.27;57.62;;;;;;;-0.86;79.03;101931.63;1721144;83;21148;-72
2021/03/03 06:16:38;;;;;;;126.27;58.30;;;;;;;-0.82;79.04;101928.83;1721230;83;21208;-72
2021/03/03 06:19:04;;;;;;;130.20;59.63;;;;;;;-0.86;79.04;101935.09;1721046;82;21185;-72
2021/03/03 06:21:32;;;;;;;121.77;54.70;;;;;;;-0.80;79.06;101927.45;1721042;83;21160;-72
2021/03/03 06:24:09;;;;;;;138.05;59.05;;;;;;;-0.78;79.07;101929.11;1720900;82;21161;-72
2021/03/03 06:26:37;;;;;;;145.25;67.03;;;;;;;-0.65;79.05;101929.02;1720799;83;21569;-72
2021/03/03 06:29:13;;;;;;;136.40;59.98;;;;;;;-0.26;78.93;101929.62;1724373;82;21201;-73
2021/03/03 06:31:40;;;;;;;128.90;54.58;;;;;;;0.15;78.91;101928.72;1738506;82;21594;-74
2021/03/03 06:34:19;;;;;;;141.20;64.70;;;;;;;0.62;78.86;101928.41;1745998;82;21148;-74
2021/03/03 06:36:49;;;;;;;248.25;101.25;;;;;;;1.04;78.86;101929.06;1725698;82;21156;-74
2021/03/03 06:39:24;;;;;;;214.45;91.85;;;;;;;1.45;78.88;101934.97;1719357;83;21180;-74
2021/03/03 06:41:55;;;;;;;224.20;99.32;;;;;;;1.83;78.88;101930.48;1719747;83;21295;-74
2021/03/03 06:44:22;;;;;;;225.13;102.47;;;;;;;2.11;78.92;101929.44;1720897;83;21148;-73
2021/03/03 06:47:04;;;;;;;268.65;107.32;;;;;;;2.26;78.93;101931.75;1720974;83;21672;-73
2021/03/03 06:49:30;;;;;;;294.37;105.87;;;;;;;2.41;78.97;101930.97;1721049;83;21148;-74
2021/03/03 06:51:56;;;;;;;237.97;101.45;;;;;;;2.55;78.97;101924.52;1721082;83;21155;-74
2021/03/03 06:54:24;;;;;;;247.02;107.15;;;;;;;2.68;78.94;101923.38;1728545;82;21220;-74
2021/03/03 06:56:52;;;;;;;224.15;104.43;;;;;;;2.82;78.91;101928.76;1735693;82;21244;-74
2021/03/03 06:59:32;;;;;;;233.80;109.17;;;;;;;2.88;78.89;101921.86;1693747;82;21197;-74
2021/03/03 07:02:01;;;;;;;234.18;105.30;;;;;;;2.91;78.86;101921.23;1719012;82;21127;-74
2021/03/03 07:04:33;;;;;;;230.22;104.20;;;;;;;3.04;78.79;101924.03;1720557;82;21235;-74
2021/03/03 07:07:12;;;;;;;221.50;105.50;;;;;;;3.15;78.70;101921.66;1716457;83;21213;-74
2021/03/03 07:09:49;;;;;;;213.07;104.35;;;;;;;3.34;78.60;101920.99;1693697;83;21149;-74
2021/03/03 07:12:29;;;;;;;220.25;105.87;;;;;;;3.49;78.51;101925.41;1711865;83;21129;-74
2021/03/03 07:15:08;;;;;;;221.07;100.87;;;;;;;3.63;78.44;101919.80;1714992;83;21587;-74
2021/03/03 07:17:35;;;;;;;220.30;104.75;;;;;;;3.80;78.34;101928.94;1718683;82;21138;-74
2021/03/03 07:20:12;;;;;;;242.95;110.35;;;;;;;3.99;78.23;101930.87;1718114;82;21217;-74
2021/03/03 07:22:41;;;;;;;234.45;103.53;;;;;;;4.19;78.15;101939.77;1723116;82;21203;-74
2021/03/03 07:25:14;;;;;;;176.47;81.63;;;;;;;4.33;78.04;101939.80;1716405;82;21187;-74
2021/03/03 07:27:42;;;;;;;209.10;77.67;;;;;;;4.47;77.99;101942.92;1720019;82;21573;-74
2021/03/03 07:30:10;;;;;;;215.05;88.27;;;;;;;4.59;77.89;101936.05;1716938;82;21196;-74
2021/03/03 07:32:37;;;;;;;229.65;100.38;;;;;;;4.78;77.80;101936.62;1720150;82;21206;-74
2021/03/03 07:35:07;;;;;;;229.07;105.22;;;;;;;4.95;77.77;101931.14;1724863;82;21668;-74
2021/03/03 07:37:42;;;;;;;235.10;112.08;;;;;;;5.09;77.76;101933.77;1723055;82;21141;-73
2021/03/03 07:40:14;;;;;;;261.82;116.33;;;;;;;5.26;77.71;101932.21;1724043;82;21525;-74
2021/03/03 07:42:44;;;;;;;231.47;109.45;;;;;;;5.36;77.66;101934.63;1713682;82;21146;-74
2021/03/03 07:45:13;;;;;;;202.72;94.67;;;;;;;5.48;77.56;101936.50;1712850;82;22133;-74
2021/03/03 07:47:41;;;;;;;197.85;93.60;;;;;;;5.56;77.39;101931.19;1722580;82;21192;-74
2021/03/03 07:50:15;;;;;;;221.20;98.95;;;;;;;5.63;77.26;101936.45;1721017;82;21209;-74
2021/03/03 07:52:47;;;;;;;211.37;100.67;;;;;;;5.75;77.17;101932.98;1719160;82;21195;-74
2021/03/03 07:55:14;;;;;;;209.57;103.00;;;;;;;5.96;77.08;101927.14;1726019;82;21211;-74
2021/03/03 07:57:43;;;;;;;206.15;102.72;;;;;;;6.15;77.00;101922.79;1715826;82;21852;-74
2021/03/03 08:00:14;;;;;;;207.35;102.78;;;;;;;6.30;76.90;101919.08;1733170;82;21126;-74
2021/03/03 08:02:51;;;;;;;;;;;;;;;6.44;76.78;101922.95;1723392;82;21161;-74
2021/03/03 08:05:36;;;;;;;273.48;128.75;;;;;;;6.56;76.64;101920.41;1725015;82;20270;-73
2021/03/03 08:08:30;;;;;;;307.62;158.50;;;;;;;6.66;76.52;101918.80;1738998;82;21575;-74
2021/03/03 08:11:08;;;;;;;394.05;196.20;;;;;;;6.75;76.41;101913.73;1719724;82;21379;-74
2021/03/03 08:13:36;;;;;;;257.25;133.43;;;;;;;6.93;76.30;101914.23;1721667;82;21230;-74
2021/03/03 08:16:04;;;;;;;238.80;124.97;;;;;;;7.06;76.13;101908.88;1728968;82;21215;-73
2021/03/03 08:18:32;;;;;;;157.37;84.17;;;;;;;7.19;75.99;101909.68;1720976;82;21177;-74
2021/03/03 08:21:00;;;;;;;129.12;64.87;;;;;;;7.31;75.87;101913.63;1736449;82;21577;-74
2021/03/03 08:23:41;;;;;;;116.53;62.17;;;;;;;7.42;75.77;101909.69;1719760;82;21224;-74
2021/03/03 08:26:21;;;;;;;113.20;59.38;;;;;;;7.61;75.62;101908.34;1720454;82;21618;-74
2021/03/03 08:28:50;;;;;;;98.85;50.58;;;;;;;7.83;75.51;101901.32;1742870;82;21188;-74
2021/03/03 08:31:25;;;;;;;100.90;51.63;;;;;;;8.00;75.35;101899.56;1749722;82;21168;-73
2021/03/03 08:33:56;;;;;;;86.85;43.25;;;;;;;8.20;75.25;101902.02;1735723;82;21173;-73
2021/03/03 08:36:29;;;;;;;76.33;40.45;;;;;;;8.40;75.13;101889.89;1719752;82;21177;-73
2021/03/03 08:39:01;;;;;;;69.07;35.88;;;;;;;8.57;75.03;101888.56;1725837;82;21214;-73
2021/03/03 08:41:34;;;;;;;62.67;32.28;;;;;;;8.67;74.88;101890.38;1719386;82;21571;-73
2021/03/03 08:44:10;;;;;;;66.40;34.73;;;;;;;8.73;74.72;101889.03;1719787;82;21669;-73
2021/03/03 08:46:46;;;;;;;67.22;36.40;;;;;;;8.79;74.54;101883.25;1719909;82;21589;-73
2021/03/03 08:49:18;;;;;;;62.98;34.00;;;;;;;8.87;74.35;101884.31;1721497;82;21282;-73
2021/03/03 08:51:48;;;;;;;62.13;32.13;;;;;;;8.91;74.16;101884.91;1744161;82;21199;-73
2021/03/03 08:54:16;;;;;;;64.20;35.35;;;;;;;8.98;73.99;101878.13;1719644;82;21149;-73
2021/03/03 08:56:45;;;;;;;69.70;37.90;;;;;;;9.02;73.76;101876.44;1719650;82;21194;-73
2021/03/03 08:59:34;;;;;;;57.78;33.28;;;;;;;9.08;73.58;101872.94;1717529;82;21152;-73
2021/03/03 09:02:17;;;;;;;54.98;30.15;;;;;;;9.18;73.42;101869.41;1719502;82;22186;-74
2021/03/03 09:04:54;;;;;;;53.20;29.10;;;;;;;9.25;73.13;101865.28;1714526;82;21140;-73
2021/03/03 09:07:29;;;;;;;53.90;29.40;;;;;;;9.28;72.83;101865.02;1714227;82;21196;-73
2021/03/03 09:10:04;;;;;;;47.70;26.42;;;;;;;9.33;72.57;101856.63;1708914;82;21709;-73
2021/03/03 09:12:40;;;;;;;47.70;26.30;;;;;;;9.38;72.32;101859.78;1720238;82;21603;-73
2021/03/03 09:15:09;;;;;;;53.17;26.52;;;;;;;9.45;72.04;101847.64;1715160;82;21288;-73
2021/03/03 09:17:36;;;;;;;50.05;25.17;;;;;;;9.59;71.81;101847.83;1719580;83;21200;-73
2021/03/03 09:20:10;;;;;;;47.78;24.52;;;;;;;9.73;71.54;101837.71;1715546;83;21161;-73
2021/03/03 09:22:44;;;;;;;42.00;23.10;;;;;;;9.87;71.32;101845.38;1711350;82;21231;-73
2021/03/03 09:25:19;;;;;;;39.42;21.65;;;;;;;9.98;71.06;101841.33;1703577;83;21135;-74
2021/03/03 09:27:55;;;;;;;40.43;21.05;;;;;;;10.07;70.80;101837.02;1712926;83;21591;-73
2021/03/03 09:30:22;;;;;;;34.95;21.10;;;;;;;10.21;70.53;101834.03;1707002;83;21173;-74
2021/03/03 09:32:49;;;;;;;41.65;23.25;;;;;;;10.38;70.29;101833.41;1700838;83;21148;-74
2021/03/03 09:35:17;;;;;;;61.30;29.42;;;;;;;10.43;69.99;101824.54;1719842;83;21631;-74
2021/03/03 09:37:45;;;;;;;45.58;26.07;;;;;;;10.49;69.76;101825.33;1710985;81;21585;-74
2021/03/03 09:40:15;;;;;;;44.40;25.50;;;;;;;10.60;69.52;101818.20;1704084;83;21277;-74
2021/03/03 09:42:43;;;;;;;45.60;23.73;;;;;;;10.63;69.21;101809.92;1705843;83;26303;-74
2021/03/03 09:45:12;;;;;;;50.75;27.55;;;;;;;10.66;68.93;101807.01;1702488;83;21667;-75
2021/03/03 09:47:39;;;;;;;44.88;24.35;;;;;;;10.72;68.68;101801.97;1702852;82;21620;-74
2021/03/03 09:50:10;;;;;;;45.95;25.02;;;;;;;10.86;68.41;101804.25;1715741;83;21185;-73
2021/03/03 09:52:42;;;;;;;46.85;27.02;;;;;;;10.96;68.12;101800.26;1714871;83;21229;-74
2021/03/03 09:55:14;;;;;;;48.25;28.15;;;;;;;11.04;67.84;101796.41;1711047;83;38092;-74
2021/03/03 09:57:43;;;;;;;55.28;28.55;;;;;;;11.08;67.56;101796.50;1701528;81;21615;-74
2021/03/03 10:00:17;;;;;;;41.88;24.40;;;;;;;11.09;67.31;101790.15;1708691;81;21185;-74
2021/03/03 10:02:57;;;;;;;52.10;26.20;;;;;;;11.17;67.05;101796.98;1728202;82;21155;-74
2021/03/03 10:05:31;;;;;;;46.68;25.95;;;;;;;11.24;66.80;101791.44;1685620;82;21221;-74
2021/03/03 10:08:05;;;;;;;52.33;27.58;;;;;;;11.35;66.57;101789.97;1727862;81;21210;-74
2021/03/03 10:10:34;;;;;;;51.35;26.85;;;;;;;11.45;66.36;101789.47;1706907;82;21158;-74
2021/03/03 10:13:01;;;;;;;49.38;26.42;;;;;;;11.54;66.14;101779.25;1706482;84;21171;-74
2021/03/03 10:15:37;;;;;;;48.13;26.77;;;;;;;11.65;65.94;101773.39;1706743;84;21202;-74
2021/03/03 10:18:09;;;;;;;68.57;31.00;;;;;;;11.74;65.73;101773.92;1709184;82;21205;-74
2021/03/03 10:20:43;;;;;;;67.40;31.82;;;;;;;11.75;65.53;101763.07;1730902;81;21163;-74
2021/03/03 10:23:26;;;;;;;57.62;31.10;;;;;;;11.79;65.34;101761.80;1725133;82;21212;-75
2021/03/03 10:26:05;;;;;;;65.57;33.80;;;;;;;11.84;65.16;101759.55;1730573;82;21632;-74
2021/03/03 10:28:32;;;;;;;67.53;33.80;;;;;;;11.89;64.94;101756.45;1717261;81;21162;-75
2021/03/03 10:31:01;;;;;;;51.90;29.37;;;;;;;11.91;64.70;101755.80;1707050;84;21222;-75
2021/03/03 10:33:37;;;;;;;59.35;32.88;;;;;;;11.89;64.47;101757.79;1707152;84;21175;-74
2021/03/03 10:36:21;;;;;;;58.15;32.23;;;;;;;11.90;64.28;101752.77;1712719;82;21206;-74
2021/03/03 10:38:54;;;;;;;64.25;33.35;;;;;;;11.95;64.09;101755.37;1706483;84;21174;-74
2021/03/03 10:41:28;;;;;;;59.48;32.80;;;;;;;12.05;63.97;101754.00;1706765;84;21592;-74
2021/03/03 10:43:55;;;;;;;62.62;33.60;;;;;;;12.13;63.78;101747.42;1721232;81;21302;-74
2021/03/03 10:46:23;;;;;;;58.42;31.33;;;;;;;12.21;63.63;101746.17;1713824;82;21186;-75
2021/03/03 10:48:50;;;;;;;62.25;32.67;;;;;;;12.23;63.43;101745.55;1699765;83;21232;-74
2021/03/03 10:51:19;;;;;;;64.55;33.18;;;;;;;12.19;63.25;101740.14;1711391;83;21120;-75
2021/03/03 10:56:40;;;;;;;63.20;32.40;;;;;;;12.30;62.95;101732.42;1813880;77;22419;-72
2021/03/03 10:59:27;;;;;;;99.45;61.05;;;;;;;12.22;62.77;101729.14;1786189;80;21196;-73
2021/03/03 11:01:58;;;;;;;84.13;57.78;;;;;;;12.33;62.65;101728.95;1756102;81;21571;-73
2021/03/03 11:04:43;;;;;;;103.10;45.08;;;;;;;12.44;62.49;101725.23;1755779;81;21190;-73
2021/03/03 11:07:15;;;;;;;134.32;50.95;;;;;;;12.53;62.28;101723.84;1757026;80;21640;-73
2021/03/03 11:09:41;;;;;;;60.17;30.62;;;;;;;12.61;62.12;101719.08;1758789;80;21170;-73
2021/03/03 11:12:09;;;;;;;52.93;29.98;;;;;;;12.68;61.99;101713.95;1757108;81;21107;-74
2021/03/03 11:14:35;;;;;;;54.90;28.77;;;;;;;12.73;61.83;101707.66;1756855;81;21536;-73
2021/03/03 11:17:02;;;;;;;41.18;24.23;;;;;;;12.79;61.68;101708.39;1726805;83;21174;-73
2021/03/03 11:19:29;;;;;;;42.23;22.45;;;;;;;12.82;61.48;101705.40;1726679;83;21127;-73
2021/03/03 11:21:56;;;;;;;37.85;21.95;;;;;;;12.81;61.22;101701.03;1726906;83;21124;-73